Terminal Aerodrome Forecast
Issued by NWS

Home | Current Version | Previous Version | Text Only | Print | Product List | Glossary On
Versions: 1 2 3 4 5 6 7 8 9 10 11 12 13 14 15 16 17 18
000
FTUS43 KFGF 281700
TAFDVL
TAF
KDVL 281737Z 2818/2918 17020G28KT P6SM BKN014
      TEMPO 2818/2822 SCT014
     FM282200 18020G28KT P6SM SCT020
     FM290300 20015G24KT P6SM -SHRA BKN050
     FM290700 30020G27KT P6SM -SHRA OVC008
     FM291000 32022G30KT P6SM OVC008
     FM291500 32026G36KT P6SM OVC015
      AMD LTD TO CLD VIS AND WIND=

USA.gov is the U.S. government's official web portal to all federal, state and local government web resources and services.